This is the latest recevied weather packets stored in our database for station/object PY2KO-3. If no packets are shown the sender has not sent any weather packets the latest 10 day(s).
| Time | Temp. | Humidity | Pressure | Rain* | Wind** | Luminosity | Snow |
|---|---|---|---|---|---|---|---|
| 1777930450 | 21.11° C | 82% | 1021.2 hPa | - | - | - | - |
| 1777929550 | 21.11° C | 81% | 1021 hPa | - | - | - | - |
| 1777928650 | 21.11° C | 82% | 1021.4 hPa | - | - | - | - |
| 1777927748 | 21.67° C | 81% | 1021.4 hPa | - | - | - | - |
| 1777926850 | 22.78° C | 78% | 1020.6 hPa | - | - | - | - |
| 1777925950 | 23.33° C | 74% | 1020.1 hPa | - | - | - | - |
| 1777925050 | 25.56° C | 63% | 1018.8 hPa | - | - | - | - |
| 1777924156 | 25.56° C | 63% | 1018.8 hPa | - | - | - | - |
| 1777923252 | 25.56° C | 64% | 1018.8 hPa | - | - | - | - |
| 1777922350 | 26.67° C | 60% | 1018.5 hPa | - | - | - | - |
| 1777921450 | 26.67° C | 56% | 1018.3 hPa | - | - | - | - |
| 1777920552 | 26.67° C | 56% | 1018.3 hPa | - | - | - | - |
| 1777919650 | 27.22° C | 56% | 1018.3 hPa | - | - | - | - |
| 1777918750 | 26.67° C | 55% | 1018.3 hPa | - | - | - | - |
| 1777917850 | 26.67° C | 57% | 1018.5 hPa | - | - | - | - |
| 1777916950 | 26.67° C | 55% | 1018.6 hPa | - | - | - | - |
| 1777916052 | 26.67° C | 56% | 1018.6 hPa | - | - | - | - |
| 1777915150 | 26.67° C | 57% | 1018.9 hPa | - | - | - | - |
| 1777914250 | 26.11° C | 57% | 1019.1 hPa | - | - | - | - |
| 1777913356 | 26.11° C | 56% | 1019.5 hPa | - | - | - | - |
| 1777912452 | 26.11° C | 55% | 1019.6 hPa | - | - | - | - |
| 1777911889 | 26.11° C | 57% | 1019.8 hPa | - | - | - | - |
| 1777910653 | 25.56° C | 56% | 1020.1 hPa | - | - | - | - |
| 1777909753 | 25.56° C | 60% | 1020.3 hPa | - | - | - | - |
| 1777908850 | 26.11° C | 57% | 1020.5 hPa | - | - | - | - |
* Rain since midnight (hover to see other rain measurements)
** Current wind speed in m/s (hover to see current wind gust speed)